sensor_id;sensor_type;location;lat;lon;timestamp;temperature;humidity
31809;DHT22;18379;48.208;-1.518;2022-11-06T00:04:44;14.20;99.90
31809;DHT22;18379;48.208;-1.518;2022-11-06T00:09:46;14.10;99.90
31809;DHT22;18379;48.208;-1.518;2022-11-06T00:14:46;14.20;99.90
31809;DHT22;18379;48.208;-1.518;2022-11-06T00:19:47;14.20;99.90
31809;DHT22;18379;48.208;-1.518;2022-11-06T00:24:48;14.20;99.90
31809;DHT22;18379;48.208;-1.518;2022-11-06T00:29:49;14.20;99.90
31809;DHT22;18379;48.208;-1.518;2022-11-06T00:34:49;14.20;99.90
31809;DHT22;18379;48.208;-1.518;2022-11-06T00:39:50;14.30;99.90
31809;DHT22;18379;48.208;-1.518;2022-11-06T00:44:51;14.30;99.90
31809;DHT22;18379;48.208;-1.518;2022-11-06T00:49:52;14.30;99.90
31809;DHT22;18379;48.208;-1.518;2022-11-06T00:54:52;14.30;99.90
31809;DHT22;18379;48.208;-1.518;2022-11-06T00:59:53;14.30;99.90
31809;DHT22;18379;48.208;-1.518;2022-11-06T01:04:54;14.30;99.90
31809;DHT22;18379;48.208;-1.518;2022-11-06T01:09:55;14.30;99.90
31809;DHT22;18379;48.208;-1.518;2022-11-06T01:14:55;14.30;99.90
31809;DHT22;18379;48.208;-1.518;2022-11-06T01:19:56;14.20;99.90
31809;DHT22;18379;48.208;-1.518;2022-11-06T01:24:57;14.20;99.90
31809;DHT22;18379;48.208;-1.518;2022-11-06T01:29:58;14.20;99.90
31809;DHT22;18379;48.208;-1.518;2022-11-06T01:34:58;14.30;99.90
31809;DHT22;18379;48.208;-1.518;2022-11-06T01:39:59;14.30;99.90
31809;DHT22;18379;48.208;-1.518;2022-11-06T01:45:24;14.30;99.90
31809;DHT22;18379;48.208;-1.518;2022-11-06T01:50:26;14.20;99.90
31809;DHT22;18379;48.208;-1.518;2022-11-06T01:55:34;14.20;99.90
31809;DHT22;18379;48.208;-1.518;2022-11-06T02:00:35;14.20;99.90
31809;DHT22;18379;48.208;-1.518;2022-11-06T02:05:41;14.30;99.90
31809;DHT22;18379;48.208;-1.518;2022-11-06T02:10:43;14.30;99.90
31809;DHT22;18379;48.208;-1.518;2022-11-06T02:26:33;14.20;99.90
31809;DHT22;18379;48.208;-1.518;2022-11-06T02:31:39;14.20;99.90
31809;DHT22;18379;48.208;-1.518;2022-11-06T02:36:48;14.10;99.90
31809;DHT22;18379;48.208;-1.518;2022-11-06T02:41:51;14.10;99.90
31809;DHT22;18379;48.208;-1.518;2022-11-06T02:47:00;14.20;99.90
31809;DHT22;18379;48.208;-1.518;2022-11-06T02:52:25;14.10;99.90
31809;DHT22;18379;48.208;-1.518;2022-11-06T02:57:31;14.20;99.90
31809;DHT22;18379;48.208;-1.518;2022-11-06T03:02:38;14.20;99.90
31809;DHT22;18379;48.208;-1.518;2022-11-06T03:13:07;14.20;99.90
31809;DHT22;18379;48.208;-1.518;2022-11-06T03:18:23;14.20;99.90
31809;DHT22;18379;48.208;-1.518;2022-11-06T03:23:31;14.20;99.90
31809;DHT22;18379;48.208;-1.518;2022-11-06T03:34:10;14.20;99.90
31809;DHT22;18379;48.208;-1.518;2022-11-06T03:39:22;14.30;99.90
31809;DHT22;18379;48.208;-1.518;2022-11-06T03:44:27;14.30;99.90
31809;DHT22;18379;48.208;-1.518;2022-11-06T03:49:45;14.30;99.90
31809;DHT22;18379;48.208;-1.518;2022-11-06T03:54:59;14.30;99.90
31809;DHT22;18379;48.208;-1.518;2022-11-06T04:00:05;14.40;99.90
31809;DHT22;18379;48.208;-1.518;2022-11-06T04:05:23;14.30;99.90
31809;DHT22;18379;48.208;-1.518;2022-11-06T04:10:24;14.40;99.90
31809;DHT22;18379;48.208;-1.518;2022-11-06T04:15:49;14.40;99.90
31809;DHT22;18379;48.208;-1.518;2022-11-06T04:26:32;14.40;99.90
31809;DHT22;18379;48.208;-1.518;2022-11-06T04:37:09;14.40;99.90
31809;DHT22;18379;48.208;-1.518;2022-11-06T04:42:24;14.50;99.90
31809;DHT22;18379;48.208;-1.518;2022-11-06T04:47:26;14.50;99.90
31809;DHT22;18379;48.208;-1.518;2022-11-06T04:52:28;14.50;99.90
31809;DHT22;18379;48.208;-1.518;2022-11-06T04:57:29;14.60;99.90
31809;DHT22;18379;48.208;-1.518;2022-11-06T05:02:29;14.60;99.90
31809;DHT22;18379;48.208;-1.518;2022-11-06T05:07:31;14.60;99.90
31809;DHT22;18379;48.208;-1.518;2022-11-06T05:12:31;14.60;99.90
31809;DHT22;18379;48.208;-1.518;2022-11-06T05:17:32;14.60;99.90
31809;DHT22;18379;48.208;-1.518;2022-11-06T05:22:33;14.60;99.90
31809;DHT22;18379;48.208;-1.518;2022-11-06T05:27:52;14.60;99.90
31809;DHT22;18379;48.208;-1.518;2022-11-06T05:32:53;14.50;99.90
31809;DHT22;18379;48.208;-1.518;2022-11-06T05:38:01;14.50;99.90
31809;DHT22;18379;48.208;-1.518;2022-11-06T05:43:02;14.50;99.90
31809;DHT22;18379;48.208;-1.518;2022-11-06T05:48:03;14.50;99.90
31809;DHT22;18379;48.208;-1.518;2022-11-06T05:53:04;14.50;99.90
31809;DHT22;18379;48.208;-1.518;2022-11-06T05:58:05;14.40;99.90
31809;DHT22;18379;48.208;-1.518;2022-11-06T06:03:05;14.40;99.90
31809;DHT22;18379;48.208;-1.518;2022-11-06T06:08:06;14.40;99.90
31809;DHT22;18379;48.208;-1.518;2022-11-06T06:13:07;14.50;99.90
31809;DHT22;18379;48.208;-1.518;2022-11-06T06:18:09;14.50;99.90
31809;DHT22;18379;48.208;-1.518;2022-11-06T06:23:09;14.50;99.90
31809;DHT22;18379;48.208;-1.518;2022-11-06T06:28:10;14.50;99.90
31809;DHT22;18379;48.208;-1.518;2022-11-06T06:33:11;14.40;99.90
31809;DHT22;18379;48.208;-1.518;2022-11-06T06:38:12;14.40;99.90
31809;DHT22;18379;48.208;-1.518;2022-11-06T06:43:13;14.30;99.90
31809;DHT22;18379;48.208;-1.518;2022-11-06T06:48:13;14.30;99.90
31809;DHT22;18379;48.208;-1.518;2022-11-06T06:53:14;14.30;99.90
31809;DHT22;18379;48.208;-1.518;2022-11-06T06:58:15;14.30;99.90
31809;DHT22;18379;48.208;-1.518;2022-11-06T07:03:16;14.30;99.90
31809;DHT22;18379;48.208;-1.518;2022-11-06T07:08:17;14.30;99.90
31809;DHT22;18379;48.208;-1.518;2022-11-06T07:13:18;14.30;99.90
31809;DHT22;18379;48.208;-1.518;2022-11-06T07:18:18;14.30;99.90
31809;DHT22;18379;48.208;-1.518;2022-11-06T07:23:19;14.30;99.90
31809;DHT22;18379;48.208;-1.518;2022-11-06T07:28:20;14.30;99.90
31809;DHT22;18379;48.208;-1.518;2022-11-06T07:33:21;14.40;99.90
31809;DHT22;18379;48.208;-1.518;2022-11-06T07:38:22;14.40;99.90
31809;DHT22;18379;48.208;-1.518;2022-11-06T07:43:22;14.40;99.90
31809;DHT22;18379;48.208;-1.518;2022-11-06T07:48:24;14.30;99.90
31809;DHT22;18379;48.208;-1.518;2022-11-06T07:53:24;14.30;99.90
31809;DHT22;18379;48.208;-1.518;2022-11-06T07:58:26;14.20;99.90
31809;DHT22;18379;48.208;-1.518;2022-11-06T08:03:27;14.30;99.90
31809;DHT22;18379;48.208;-1.518;2022-11-06T08:08:31;14.20;99.90
31809;DHT22;18379;48.208;-1.518;2022-11-06T08:13:32;14.30;99.90
31809;DHT22;18379;48.208;-1.518;2022-11-06T08:18:34;14.30;99.90
31809;DHT22;18379;48.208;-1.518;2022-11-06T08:23:35;14.30;99.90
31809;DHT22;18379;48.208;-1.518;2022-11-06T08:28:36;14.40;99.90
31809;DHT22;18379;48.208;-1.518;2022-11-06T08:33:37;14.40;99.90
31809;DHT22;18379;48.208;-1.518;2022-11-06T08:38:38;14.30;99.90
31809;DHT22;18379;48.208;-1.518;2022-11-06T08:43:39;14.40;99.90
31809;DHT22;18379;48.208;-1.518;2022-11-06T08:48:41;14.30;99.90
31809;DHT22;18379;48.208;-1.518;2022-11-06T08:53:41;14.30;99.90
31809;DHT22;18379;48.208;-1.518;2022-11-06T08:58:42;14.30;99.90
31809;DHT22;18379;48.208;-1.518;2022-11-06T09:03:43;14.30;99.90
31809;DHT22;18379;48.208;-1.518;2022-11-06T09:08:44;14.30;99.90
31809;DHT22;18379;48.208;-1.518;2022-11-06T09:13:44;14.30;99.90
31809;DHT22;18379;48.208;-1.518;2022-11-06T09:18:45;14.20;99.90
31809;DHT22;18379;48.208;-1.518;2022-11-06T09:23:46;14.20;99.90
31809;DHT22;18379;48.208;-1.518;2022-11-06T09:28:48;14.30;99.90
31809;DHT22;18379;48.208;-1.518;2022-11-06T09:33:48;14.40;99.90
31809;DHT22;18379;48.208;-1.518;2022-11-06T09:38:50;14.50;99.90
31809;DHT22;18379;48.208;-1.518;2022-11-06T09:49:04;14.60;99.90
31809;DHT22;18379;48.208;-1.518;2022-11-06T09:59:19;14.70;99.90
31809;DHT22;18379;48.208;-1.518;2022-11-06T10:09:43;14.70;99.90
31809;DHT22;18379;48.208;-1.518;2022-11-06T10:20:16;14.70;99.90
31809;DHT22;18379;48.208;-1.518;2022-11-06T10:25:20;14.60;99.90
31809;DHT22;18379;48.208;-1.518;2022-11-06T10:30:21;14.70;99.90
31809;DHT22;18379;48.208;-1.518;2022-11-06T10:35:38;14.70;99.90
31809;DHT22;18379;48.208;-1.518;2022-11-06T10:40:42;14.70;99.90
31809;DHT22;18379;48.208;-1.518;2022-11-06T10:45:47;14.70;99.90
31809;DHT22;18379;48.208;-1.518;2022-11-06T11:01:14;14.70;99.90
31809;DHT22;18379;48.208;-1.518;2022-11-06T11:06:15;14.70;99.90
31809;DHT22;18379;48.208;-1.518;2022-11-06T11:11:27;14.60;99.90
31809;DHT22;18379;48.208;-1.518;2022-11-06T11:16:29;14.80;99.90
31809;DHT22;18379;48.208;-1.518;2022-11-06T11:21:31;14.90;99.90
31809;DHT22;18379;48.208;-1.518;2022-11-06T11:26:54;14.80;99.90
31809;DHT22;18379;48.208;-1.518;2022-11-06T11:32:00;14.90;99.90
31809;DHT22;18379;48.208;-1.518;2022-11-06T11:37:05;15.00;99.90
31809;DHT22;18379;48.208;-1.518;2022-11-06T11:42:28;15.00;99.90
31809;DHT22;18379;48.208;-1.518;2022-11-06T11:47:29;15.00;99.90
31809;DHT22;18379;48.208;-1.518;2022-11-06T11:52:30;15.00;99.90
31809;DHT22;18379;48.208;-1.518;2022-11-06T11:57:30;15.00;99.90
31809;DHT22;18379;48.208;-1.518;2022-11-06T12:02:41;15.00;99.90
31809;DHT22;18379;48.208;-1.518;2022-11-06T12:07:47;15.10;99.90
31809;DHT22;18379;48.208;-1.518;2022-11-06T12:12:50;15.20;99.90
31809;DHT22;18379;48.208;-1.518;2022-11-06T12:18:03;15.20;99.90
31809;DHT22;18379;48.208;-1.518;2022-11-06T12:23:12;15.40;99.90
31809;DHT22;18379;48.208;-1.518;2022-11-06T12:28:16;15.40;99.90
31809;DHT22;18379;48.208;-1.518;2022-11-06T12:33:21;15.30;99.90
31809;DHT22;18379;48.208;-1.518;2022-11-06T12:38:53;15.40;99.90
31809;DHT22;18379;48.208;-1.518;2022-11-06T12:43:55;15.50;99.90
31809;DHT22;18379;48.208;-1.518;2022-11-06T12:59:55;15.90;99.90
31809;DHT22;18379;48.208;-1.518;2022-11-06T13:05:05;16.00;99.90
31809;DHT22;18379;48.208;-1.518;2022-11-06T13:11:12;16.10;99.90
31809;DHT22;18379;48.208;-1.518;2022-11-06T13:21:06;16.20;99.90
31809;DHT22;18379;48.208;-1.518;2022-11-06T13:36:44;16.30;99.90
31809;DHT22;18379;48.208;-1.518;2022-11-06T13:41:45;16.20;99.90
31809;DHT22;18379;48.208;-1.518;2022-11-06T13:47:10;16.30;99.90
31809;DHT22;18379;48.208;-1.518;2022-11-06T13:58:03;16.20;99.90
31809;DHT22;18379;48.208;-1.518;2022-11-06T14:08:31;16.10;99.90
31809;DHT22;18379;48.208;-1.518;2022-11-06T14:13:34;15.70;99.90
31809;DHT22;18379;48.208;-1.518;2022-11-06T14:18:35;15.20;99.90
31809;DHT22;18379;48.208;-1.518;2022-11-06T14:28:39;14.80;99.90
31809;DHT22;18379;48.208;-1.518;2022-11-06T14:38:43;14.60;99.90
31809;DHT22;18379;48.208;-1.518;2022-11-06T14:43:49;14.70;99.90
31809;DHT22;18379;48.208;-1.518;2022-11-06T14:48:54;14.80;99.90
31809;DHT22;18379;48.208;-1.518;2022-11-06T14:53:58;15.00;99.90
31809;DHT22;18379;48.208;-1.518;2022-11-06T14:59:05;14.90;99.90
31809;DHT22;18379;48.208;-1.518;2022-11-06T15:04:17;14.90;99.90
31809;DHT22;18379;48.208;-1.518;2022-11-06T15:19:46;15.00;99.90
31809;DHT22;18379;48.208;-1.518;2022-11-06T15:25:02;15.00;99.90
31809;DHT22;18379;48.208;-1.518;2022-11-06T15:30:13;15.00;99.90
31809;DHT22;18379;48.208;-1.518;2022-11-06T15:35:22;15.10;99.90
31809;DHT22;18379;48.208;-1.518;2022-11-06T15:40:29;15.20;99.90
31809;DHT22;18379;48.208;-1.518;2022-11-06T15:45:30;15.20;99.90
31809;DHT22;18379;48.208;-1.518;2022-11-06T15:50:35;15.20;99.90
31809;DHT22;18379;48.208;-1.518;2022-11-06T15:55:43;15.20;99.90
31809;DHT22;18379;48.208;-1.518;2022-11-06T16:00:48;15.10;99.90
31809;DHT22;18379;48.208;-1.518;2022-11-06T16:05:49;15.10;99.90
31809;DHT22;18379;48.208;-1.518;2022-11-06T16:10:51;15.00;99.90
31809;DHT22;18379;48.208;-1.518;2022-11-06T16:16:00;15.00;99.90
31809;DHT22;18379;48.208;-1.518;2022-11-06T16:21:09;14.90;99.90
31809;DHT22;18379;48.208;-1.518;2022-11-06T16:31:26;14.70;99.90
31809;DHT22;18379;48.208;-1.518;2022-11-06T16:36:46;14.70;99.90
31809;DHT22;18379;48.208;-1.518;2022-11-06T16:52:20;14.50;99.90
31809;DHT22;18379;48.208;-1.518;2022-11-06T16:57:27;14.40;99.90
31809;DHT22;18379;48.208;-1.518;2022-11-06T17:02:31;14.30;99.90
31809;DHT22;18379;48.208;-1.518;2022-11-06T17:07:34;14.20;99.90
31809;DHT22;18379;48.208;-1.518;2022-11-06T17:12:34;14.20;99.90
31809;DHT22;18379;48.208;-1.518;2022-11-06T17:17:36;14.10;99.90
31809;DHT22;18379;48.208;-1.518;2022-11-06T17:22:38;14.10;99.90
31809;DHT22;18379;48.208;-1.518;2022-11-06T17:27:39;14.10;99.90
31809;DHT22;18379;48.208;-1.518;2022-11-06T17:32:41;14.00;99.90
31809;DHT22;18379;48.208;-1.518;2022-11-06T17:37:41;14.10;99.90
31809;DHT22;18379;48.208;-1.518;2022-11-06T17:42:42;14.00;99.90
31809;DHT22;18379;48.208;-1.518;2022-11-06T17:47:43;14.00;99.90
31809;DHT22;18379;48.208;-1.518;2022-11-06T17:52:44;14.10;99.90
31809;DHT22;18379;48.208;-1.518;2022-11-06T17:57:45;14.10;99.90
31809;DHT22;18379;48.208;-1.518;2022-11-06T18:02:45;14.10;99.90
31809;DHT22;18379;48.208;-1.518;2022-11-06T18:07:46;14.00;99.90
31809;DHT22;18379;48.208;-1.518;2022-11-06T18:12:47;14.00;99.90
31809;DHT22;18379;48.208;-1.518;2022-11-06T18:17:50;13.90;99.90
31809;DHT22;18379;48.208;-1.518;2022-11-06T18:22:51;13.90;99.90
31809;DHT22;18379;48.208;-1.518;2022-11-06T18:27:52;13.90;99.90
31809;DHT22;18379;48.208;-1.518;2022-11-06T18:32:53;13.90;99.90
31809;DHT22;18379;48.208;-1.518;2022-11-06T18:37:53;13.90;99.90
31809;DHT22;18379;48.208;-1.518;2022-11-06T18:42:54;13.80;99.90
31809;DHT22;18379;48.208;-1.518;2022-11-06T18:47:56;13.80;99.90
31809;DHT22;18379;48.208;-1.518;2022-11-06T18:52:56;13.80;99.90
31809;DHT22;18379;48.208;-1.518;2022-11-06T18:57:57;13.80;99.90
31809;DHT22;18379;48.208;-1.518;2022-11-06T19:02:58;13.70;99.90
31809;DHT22;18379;48.208;-1.518;2022-11-06T19:08:00;13.60;99.90
31809;DHT22;18379;48.208;-1.518;2022-11-06T19:13:01;13.50;99.90
31809;DHT22;18379;48.208;-1.518;2022-11-06T19:18:02;13.50;99.90
31809;DHT22;18379;48.208;-1.518;2022-11-06T19:23:03;13.40;99.90
31809;DHT22;18379;48.208;-1.518;2022-11-06T19:28:04;13.50;99.90
31809;DHT22;18379;48.208;-1.518;2022-11-06T19:33:05;13.50;99.90
31809;DHT22;18379;48.208;-1.518;2022-11-06T19:38:06;13.50;99.90
31809;DHT22;18379;48.208;-1.518;2022-11-06T19:43:07;13.50;99.90
31809;DHT22;18379;48.208;-1.518;2022-11-06T19:48:09;13.40;99.90
31809;DHT22;18379;48.208;-1.518;2022-11-06T19:53:10;13.50;99.90
31809;DHT22;18379;48.208;-1.518;2022-11-06T19:58:13;13.40;99.90
31809;DHT22;18379;48.208;-1.518;2022-11-06T20:03:15;13.30;99.90
31809;DHT22;18379;48.208;-1.518;2022-11-06T20:08:16;13.30;99.90
31809;DHT22;18379;48.208;-1.518;2022-11-06T20:13:17;13.30;99.90
31809;DHT22;18379;48.208;-1.518;2022-11-06T20:18:17;13.30;99.90
31809;DHT22;18379;48.208;-1.518;2022-11-06T20:23:19;13.30;99.90
31809;DHT22;18379;48.208;-1.518;2022-11-06T20:28:20;13.30;99.90
31809;DHT22;18379;48.208;-1.518;2022-11-06T20:33:21;13.30;99.90
31809;DHT22;18379;48.208;-1.518;2022-11-06T20:38:22;13.30;99.90
31809;DHT22;18379;48.208;-1.518;2022-11-06T20:43:24;13.40;99.90
31809;DHT22;18379;48.208;-1.518;2022-11-06T20:48:25;13.40;99.90
31809;DHT22;18379;48.208;-1.518;2022-11-06T20:53:26;13.40;99.90
31809;DHT22;18379;48.208;-1.518;2022-11-06T20:58:28;13.40;99.90
31809;DHT22;18379;48.208;-1.518;2022-11-06T21:03:29;13.40;99.90
31809;DHT22;18379;48.208;-1.518;2022-11-06T21:08:32;13.50;99.90
31809;DHT22;18379;48.208;-1.518;2022-11-06T21:13:33;13.40;99.90
31809;DHT22;18379;48.208;-1.518;2022-11-06T21:18:36;13.40;99.90
31809;DHT22;18379;48.208;-1.518;2022-11-06T21:23:38;13.50;99.90
31809;DHT22;18379;48.208;-1.518;2022-11-06T21:28:40;13.40;99.90
31809;DHT22;18379;48.208;-1.518;2022-11-06T21:33:44;13.40;99.90
31809;DHT22;18379;48.208;-1.518;2022-11-06T21:38:45;13.50;99.90
31809;DHT22;18379;48.208;-1.518;2022-11-06T21:43:46;13.50;99.90
31809;DHT22;18379;48.208;-1.518;2022-11-06T21:48:48;13.50;99.90
31809;DHT22;18379;48.208;-1.518;2022-11-06T21:53:49;13.50;99.90
31809;DHT22;18379;48.208;-1.518;2022-11-06T21:59:11;13.60;99.90
31809;DHT22;18379;48.208;-1.518;2022-11-06T22:04:13;13.60;99.90
31809;DHT22;18379;48.208;-1.518;2022-11-06T22:09:13;13.60;99.90
31809;DHT22;18379;48.208;-1.518;2022-11-06T22:14:15;13.60;99.90
31809;DHT22;18379;48.208;-1.518;2022-11-06T22:19:16;13.50;99.90
31809;DHT22;18379;48.208;-1.518;2022-11-06T22:24:17;13.60;99.90
31809;DHT22;18379;48.208;-1.518;2022-11-06T22:29:18;13.60;99.90
31809;DHT22;18379;48.208;-1.518;2022-11-06T22:34:18;13.60;99.90
31809;DHT22;18379;48.208;-1.518;2022-11-06T22:39:19;13.60;99.90
31809;DHT22;18379;48.208;-1.518;2022-11-06T22:44:20;13.60;99.90
31809;DHT22;18379;48.208;-1.518;2022-11-06T22:49:20;13.60;99.90
31809;DHT22;18379;48.208;-1.518;2022-11-06T22:54:21;13.60;99.90
31809;DHT22;18379;48.208;-1.518;2022-11-06T22:59:22;13.60;99.90
31809;DHT22;18379;48.208;-1.518;2022-11-06T23:04:23;13.70;99.90
31809;DHT22;18379;48.208;-1.518;2022-11-06T23:09:24;13.80;99.90
31809;DHT22;18379;48.208;-1.518;2022-11-06T23:14:24;13.80;99.90
31809;DHT22;18379;48.208;-1.518;2022-11-06T23:19:27;13.90;99.90
31809;DHT22;18379;48.208;-1.518;2022-11-06T23:24:29;13.90;99.90
31809;DHT22;18379;48.208;-1.518;2022-11-06T23:29:29;13.90;99.90
31809;DHT22;18379;48.208;-1.518;2022-11-06T23:34:30;13.90;99.90
31809;DHT22;18379;48.208;-1.518;2022-11-06T23:39:31;13.90;99.90
31809;DHT22;18379;48.208;-1.518;2022-11-06T23:44:31;14.00;99.90
31809;DHT22;18379;48.208;-1.518;2022-11-06T23:49:51;14.00;99.90
31809;DHT22;18379;48.208;-1.518;2022-11-06T23:54:52;14.00;99.90
31809;DHT22;18379;48.208;-1.518;2022-11-06T23:59:54;14.00;99.90
